Terminal Aerodrome Forecast
Issued by NWS

Home | Current Version | Previous Version | Text Only | Print | Product List | Glossary On
Versions: 1 2 3 4 5 6 7 8 9 10 11 12 13 14 15 16 17 18 19 20 21
792
FTUS46 KMFR 191955 AAA
TAFOTH
TAF AMD
KOTH 191955Z 1920/2018 20012G20KT P6SM -SHRA VCTS SCT020 BKN040CB
      OVC080
     FM192100 21011KT P6SM -SHRA SCT020 OVC040
     FM200200 15005KT P6SM -RA SCT020 OVC035
     FM201400 16011KT P6SM -RA BKN020 OVC040 WS020/18040KT=

USA.gov is the U.S. government's official web portal to all federal, state and local government web resources and services.